Terminal Aerodrome Forecast
Issued by NWS

Home | Current Version | Previous Version | Text Only | Print | Product List | Glossary Off
Versions: 1 2 3 4 5 6 7 8 9 10 11 12 13 14 15 16 17 18

756
FTUS43 KTOP 202321
TAFMHK
TAF
KMHK 202321Z 2100/2124 19006KT P6SM SCT100
     FM210800 22005KT P6SM SCT100 WS015/22035KT
     FM211300 21007KT P6SM FEW200
     FM211700 20014G22KT P6SM SKC=

USA.gov is the U.S. government's official web portal to all federal, state and local government web resources and services.